createdAt,value
2023-05-25T00:02:24.926Z,17.32
2023-05-25T00:04:53.838Z,17.32
2023-05-25T00:07:22.115Z,17.32
2023-05-25T00:09:50.586Z,17.34
2023-05-25T00:12:19.158Z,17.34
2023-05-25T00:14:47.899Z,17.34
2023-05-25T00:17:18.925Z,17.33
2023-05-25T00:19:48.205Z,17.33
2023-05-25T00:22:16.159Z,17.35
2023-05-25T00:24:44.485Z,17.35
2023-05-25T00:27:12.549Z,17.34
2023-05-25T00:29:40.544Z,17.33
2023-05-25T00:32:09.234Z,17.32
2023-05-25T00:34:38.198Z,17.32
2023-05-25T00:37:07.295Z,17.31
2023-05-25T00:39:35.522Z,17.30
2023-05-25T00:42:04.033Z,17.30
2023-05-25T00:44:32.223Z,17.29
2023-05-25T00:47:04.531Z,17.30
2023-05-25T00:49:35.417Z,17.30
2023-05-25T00:52:04.515Z,17.29
2023-05-25T00:54:34.013Z,17.28
2023-05-25T00:57:06.121Z,17.26
2023-05-25T00:59:42.035Z,17.25
2023-05-25T01:02:11.281Z,17.23
2023-05-25T01:04:45.659Z,17.20
2023-05-25T01:07:17.665Z,17.18
2023-05-25T01:09:46.144Z,17.16
2023-05-25T01:12:15.204Z,17.13
2023-05-25T01:14:44.353Z,17.10
2023-05-25T01:17:14.018Z,17.07
2023-05-25T01:19:51.895Z,17.02
2023-05-25T01:22:32.895Z,16.97
2023-05-25T01:25:24.802Z,16.92
2023-05-25T01:28:04.030Z,16.89
2023-05-25T01:30:33.720Z,16.85
2023-05-25T01:33:03.033Z,16.82
2023-05-25T01:35:31.541Z,16.79
2023-05-25T01:37:59.592Z,16.77
2023-05-25T01:40:31.998Z,16.73
2023-05-25T01:43:02.279Z,16.71
2023-05-25T01:45:33.242Z,16.67
2023-05-25T01:48:04.459Z,16.65
2023-05-25T01:50:46.832Z,16.63
2023-05-25T01:53:23.621Z,16.61
2023-05-25T01:56:11.931Z,16.59
2023-05-25T01:58:42.716Z,16.57
2023-05-25T02:01:14.671Z,16.55
2023-05-25T02:03:42.783Z,16.53
2023-05-25T02:06:12.337Z,16.52
2023-05-25T02:08:40.820Z,16.51
2023-05-25T02:11:08.908Z,16.50
2023-05-25T02:13:37.596Z,16.50
2023-05-25T02:16:06.507Z,16.50
2023-05-25T02:18:34.780Z,16.49
2023-05-25T02:21:03.254Z,16.48
2023-05-25T02:23:31.321Z,16.47
2023-05-25T02:25:59.988Z,16.46
2023-05-25T02:28:28.416Z,16.45
2023-05-25T02:30:56.936Z,16.44
2023-05-25T02:33:26.277Z,16.43
2023-05-25T02:35:54.306Z,16.42
2023-05-25T02:38:26.643Z,16.41
2023-05-25T02:40:55.906Z,16.41
2023-05-25T02:43:25.286Z,16.40
2023-05-25T02:45:54.491Z,16.40
2023-05-25T02:48:23.049Z,16.38
2023-05-25T02:50:51.399Z,16.38
2023-05-25T02:53:19.474Z,16.37
2023-05-25T02:55:47.417Z,16.36
2023-05-25T02:58:18.850Z,16.36
2023-05-25T03:01:10.638Z,16.35
2023-05-25T03:03:39.714Z,16.35
2023-05-25T03:06:08.619Z,16.34
2023-05-25T03:08:36.732Z,16.33
2023-05-25T03:11:04.773Z,16.33
2023-05-25T03:13:33.068Z,16.33
2023-05-25T03:16:01.543Z,16.32
2023-05-25T03:18:30.636Z,16.32
2023-05-25T03:20:59.044Z,16.31
2023-05-25T03:23:27.613Z,16.31
2023-05-25T03:25:58.279Z,16.31
2023-05-25T03:28:26.899Z,16.31
2023-05-25T03:30:54.887Z,16.31
2023-05-25T03:33:23.491Z,16.31
2023-05-25T03:35:53.214Z,16.31
2023-05-25T03:38:21.846Z,16.31
2023-05-25T03:40:50.615Z,16.31
2023-05-25T03:43:19.167Z,16.31
2023-05-25T03:45:48.384Z,16.31
2023-05-25T03:48:18.269Z,16.31
2023-05-25T03:50:49.270Z,16.31
2023-05-25T03:53:17.875Z,16.31
2023-05-25T03:55:46.931Z,16.32
2023-05-25T03:58:18.535Z,16.32
2023-05-25T04:00:51.874Z,16.32
2023-05-25T04:03:21.274Z,16.32
2023-05-25T04:05:50.180Z,16.32
2023-05-25T04:08:19.775Z,16.33
2023-05-25T04:10:48.283Z,16.35
2023-05-25T04:13:17.077Z,16.38
2023-05-25T04:15:45.795Z,16.40
2023-05-25T04:18:19.234Z,16.42
2023-05-25T04:20:48.644Z,16.46
2023-05-25T04:23:19.836Z,16.49
2023-05-25T04:25:50.587Z,16.52
2023-05-25T04:28:18.931Z,16.56
2023-05-25T04:30:57.408Z,16.59
2023-05-25T04:33:49.492Z,16.62
2023-05-25T04:36:32.853Z,16.65
2023-05-25T04:39:03.559Z,16.69
2023-05-25T04:41:34.199Z,16.72
2023-05-25T04:44:10.197Z,16.75
2023-05-25T04:47:01.757Z,16.77
2023-05-25T04:49:34.743Z,16.78
2023-05-25T04:52:03.015Z,16.80
2023-05-25T04:54:32.217Z,16.82
2023-05-25T04:57:03.394Z,16.83
2023-05-25T04:59:33.156Z,16.85
2023-05-25T05:02:02.168Z,16.87
2023-05-25T05:04:30.688Z,16.89
2023-05-25T05:07:00.508Z,16.91
2023-05-25T05:09:31.170Z,16.93
2023-05-25T05:12:01.923Z,16.95
2023-05-25T05:14:32.285Z,16.97
2023-05-25T05:17:00.816Z,16.99
2023-05-25T05:19:33.358Z,17.02
2023-05-25T05:22:01.814Z,17.05
2023-05-25T05:24:30.713Z,17.08
2023-05-25T05:27:02.083Z,17.12
2023-05-25T05:29:41.037Z,17.16
2023-05-25T05:32:09.256Z,17.18
2023-05-25T05:34:37.736Z,17.21
2023-05-25T05:37:10.421Z,17.24
2023-05-25T05:39:39.480Z,17.27
2023-05-25T05:42:08.319Z,17.30
2023-05-25T05:44:37.685Z,17.34
2023-05-25T05:47:06.533Z,17.38
2023-05-25T05:49:38.472Z,17.40
2023-05-25T05:52:09.061Z,17.44
2023-05-25T05:54:37.191Z,17.47
2023-05-25T05:57:09.822Z,17.51
2023-05-25T05:59:37.881Z,17.54
2023-05-25T06:02:07.510Z,17.55
2023-05-25T06:04:38.226Z,17.57
2023-05-25T06:07:06.437Z,17.58
2023-05-25T06:09:35.874Z,17.60
2023-05-25T06:12:06.252Z,17.61
2023-05-25T06:14:35.991Z,17.62
2023-05-25T06:17:07.937Z,17.62
2023-05-25T06:19:38.080Z,17.63
2023-05-25T06:22:07.880Z,17.64
2023-05-25T06:24:36.082Z,17.65
2023-05-25T06:27:05.225Z,17.66
2023-05-25T06:29:34.273Z,17.67
2023-05-25T06:32:02.268Z,17.68
2023-05-25T06:34:32.044Z,17.68
2023-05-25T06:37:02.084Z,17.69
2023-05-25T06:39:31.471Z,17.70
2023-05-25T06:42:00.327Z,17.72
2023-05-25T06:44:33.522Z,17.73
2023-05-25T06:47:04.862Z,17.76
2023-05-25T06:49:33.331Z,17.78
2023-05-25T06:52:01.928Z,17.80
2023-05-25T06:54:31.017Z,17.82
2023-05-25T06:57:01.537Z,17.83
2023-05-25T06:59:31.084Z,17.85
2023-05-25T07:02:01.424Z,17.87
2023-05-25T07:04:29.727Z,17.89
2023-05-25T07:06:58.829Z,17.91
2023-05-25T07:09:26.714Z,17.94
2023-05-25T07:11:55.786Z,17.96
2023-05-25T07:14:24.063Z,18.00
2023-05-25T07:16:52.260Z,18.03
2023-05-25T07:19:20.849Z,18.05
2023-05-25T07:21:50.228Z,18.08
2023-05-25T07:24:19.034Z,18.11
2023-05-25T07:26:49.570Z,18.13
2023-05-25T07:29:19.437Z,18.16
2023-05-25T07:31:48.194Z,18.20
2023-05-25T07:34:16.193Z,18.23
2023-05-25T07:36:44.305Z,18.26
2023-05-25T07:39:12.745Z,18.29
2023-05-25T07:41:41.502Z,18.32
2023-05-25T07:44:09.679Z,18.35
2023-05-25T07:46:37.976Z,18.38
2023-05-25T07:49:12.292Z,18.42
2023-05-25T07:51:43.858Z,18.45
2023-05-25T07:54:12.185Z,18.49
2023-05-25T07:56:41.140Z,18.52
2023-05-25T07:59:11.906Z,18.56
2023-05-25T08:01:40.867Z,18.59
2023-05-25T08:04:09.794Z,18.64
2023-05-25T08:06:38.636Z,18.68
2023-05-25T08:09:08.228Z,18.72
2023-05-25T08:11:38.034Z,18.75
2023-05-25T08:14:06.221Z,18.79
2023-05-25T08:16:35.383Z,18.83
2023-05-25T08:19:03.584Z,18.86
2023-05-25T08:21:35.533Z,18.89
2023-05-25T08:24:05.095Z,18.92
2023-05-25T08:26:52.298Z,18.96
2023-05-25T08:29:22.332Z,19.01
2023-05-25T08:31:50.758Z,19.04
2023-05-25T08:34:18.969Z,19.08
2023-05-25T08:36:47.341Z,19.11
2023-05-25T08:39:16.683Z,19.15
2023-05-25T08:41:45.323Z,19.18
2023-05-25T08:44:15.592Z,19.22
2023-05-25T08:46:47.265Z,19.26
2023-05-25T08:49:16.387Z,19.30
2023-05-25T08:51:55.127Z,19.35
2023-05-25T08:54:24.725Z,19.38
2023-05-25T08:56:56.318Z,19.42
2023-05-25T08:59:24.725Z,19.46
2023-05-25T09:01:55.507Z,19.50
2023-05-25T09:04:25.128Z,19.55
2023-05-25T09:07:08.830Z,19.59
2023-05-25T09:09:39.753Z,19.64
2023-05-25T09:12:08.809Z,19.68
2023-05-25T09:14:38.258Z,19.73
2023-05-25T09:17:07.990Z,19.77
2023-05-25T09:19:37.000Z,19.81
2023-05-25T09:22:15.140Z,19.86
2023-05-25T09:24:46.152Z,19.91
2023-05-25T09:27:19.109Z,19.96
2023-05-25T09:29:48.720Z,20.01
2023-05-25T09:32:17.667Z,20.06
2023-05-25T09:34:47.079Z,20.11
2023-05-25T09:37:19.759Z,20.16
2023-05-25T09:39:48.324Z,20.21
2023-05-25T09:42:16.562Z,20.26
2023-05-25T09:44:44.998Z,20.32
2023-05-25T09:47:19.567Z,20.37
2023-05-25T09:49:50.130Z,20.42
2023-05-25T09:52:18.217Z,20.48
2023-05-25T09:54:47.880Z,20.52
2023-05-25T09:57:16.996Z,20.58
2023-05-25T09:59:46.055Z,20.62
2023-05-25T10:02:14.707Z,20.66
2023-05-25T10:04:43.211Z,20.70
2023-05-25T10:07:11.418Z,20.75
2023-05-25T10:10:00.317Z,20.79
2023-05-25T10:12:28.619Z,20.84
2023-05-25T10:14:58.736Z,20.88
2023-05-25T10:17:28.667Z,20.93
2023-05-25T10:20:00.875Z,20.96
2023-05-25T10:22:47.111Z,20.99
2023-05-25T10:25:23.808Z,21.04
2023-05-25T10:27:57.507Z,21.08
2023-05-25T10:30:28.009Z,21.10
2023-05-25T10:32:59.156Z,21.14
2023-05-25T10:35:27.884Z,21.17
2023-05-25T10:37:57.124Z,21.19
2023-05-25T10:40:25.802Z,21.22
2023-05-25T10:42:55.920Z,21.25
2023-05-25T10:45:24.876Z,21.28
2023-05-25T10:47:53.245Z,21.31
2023-05-25T10:50:24.634Z,21.34
2023-05-25T10:53:12.359Z,21.37
2023-05-25T10:55:52.300Z,21.41
2023-05-25T10:58:21.836Z,21.44
2023-05-25T11:01:05.986Z,21.48
2023-05-25T11:03:52.807Z,21.51
2023-05-25T11:06:21.846Z,21.56
2023-05-25T11:08:56.246Z,21.60
2023-05-25T11:11:45.510Z,21.63
2023-05-25T11:14:26.221Z,21.67
2023-05-25T11:17:15.624Z,21.72
2023-05-25T11:19:53.415Z,21.76
2023-05-25T11:22:22.844Z,21.79
2023-05-25T11:24:52.982Z,21.83
2023-05-25T11:27:24.748Z,21.87
2023-05-25T11:29:54.541Z,21.92
2023-05-25T11:32:23.161Z,21.96
2023-05-25T11:34:57.435Z,22.00
2023-05-25T11:37:29.120Z,22.04
2023-05-25T11:39:58.803Z,22.08
2023-05-25T11:42:28.553Z,22.13
2023-05-25T11:44:57.392Z,22.17
2023-05-25T11:47:28.121Z,22.22
2023-05-25T11:49:58.399Z,22.27
2023-05-25T11:52:28.093Z,22.31
2023-05-25T11:54:56.785Z,22.36
2023-05-25T11:57:25.731Z,22.41
2023-05-25T11:59:54.581Z,22.45
2023-05-25T12:02:24.831Z,22.50
2023-05-25T12:04:55.386Z,22.55
2023-05-25T12:07:27.263Z,22.60
2023-05-25T12:10:09.199Z,22.65
2023-05-25T12:12:48.063Z,22.69
2023-05-25T12:15:20.657Z,22.74
2023-05-25T12:17:51.189Z,22.78
2023-05-25T12:20:20.720Z,22.84
2023-05-25T12:22:49.126Z,22.89
2023-05-25T12:25:21.699Z,22.94
2023-05-25T12:28:09.685Z,22.98
2023-05-25T12:30:37.900Z,23.04
2023-05-25T12:33:06.465Z,23.08
2023-05-25T12:35:48.321Z,23.12
2023-05-25T12:38:18.083Z,23.15
2023-05-25T12:40:46.432Z,23.20
2023-05-25T12:43:15.699Z,23.24
2023-05-25T12:45:44.342Z,23.28
2023-05-25T12:48:12.783Z,23.32
2023-05-25T12:50:56.850Z,23.37
2023-05-25T12:53:27.330Z,23.41
2023-05-25T12:56:03.619Z,23.43
2023-05-25T12:58:31.854Z,23.47
2023-05-25T13:01:01.503Z,23.49
2023-05-25T13:03:29.512Z,23.52
2023-05-25T13:06:02.749Z,23.55
2023-05-25T13:08:31.182Z,23.59
2023-05-25T13:11:00.223Z,23.62
2023-05-25T13:13:29.464Z,23.66
2023-05-25T13:15:58.567Z,23.70
2023-05-25T13:18:27.569Z,23.74
2023-05-25T13:20:57.137Z,23.77
2023-05-25T13:23:25.726Z,23.81
2023-05-25T13:25:54.325Z,23.85
2023-05-25T13:28:23.076Z,23.89
2023-05-25T13:30:51.636Z,23.93
2023-05-25T13:33:19.687Z,23.97
2023-05-25T13:35:58.860Z,24.00
2023-05-25T13:38:27.921Z,24.02
2023-05-25T13:40:58.105Z,24.04
2023-05-25T13:43:27.668Z,24.06
2023-05-25T13:45:56.644Z,24.08
2023-05-25T13:48:25.158Z,24.09
2023-05-25T13:50:53.478Z,24.11
2023-05-25T13:53:22.822Z,24.13
2023-05-25T13:55:54.432Z,24.15
2023-05-25T13:58:25.252Z,24.17
2023-05-25T14:00:54.389Z,24.19
2023-05-25T14:03:22.723Z,24.21
2023-05-25T14:05:54.025Z,24.24
2023-05-25T14:08:22.295Z,24.26
2023-05-25T14:10:50.623Z,24.29
2023-05-25T14:13:18.642Z,24.31
2023-05-25T14:15:47.900Z,24.34
2023-05-25T14:18:16.422Z,24.38
2023-05-25T14:20:45.222Z,24.41
2023-05-25T14:23:18.420Z,24.44
2023-05-25T14:25:48.894Z,24.48
2023-05-25T14:28:16.841Z,24.52
2023-05-25T14:30:46.639Z,24.56
2023-05-25T14:33:17.494Z,24.58
2023-05-25T14:35:46.424Z,24.61
2023-05-25T14:38:14.818Z,24.64
2023-05-25T14:40:43.944Z,24.67
2023-05-25T14:43:12.430Z,24.71
2023-05-25T14:45:40.395Z,24.74
2023-05-25T14:48:16.426Z,24.78
2023-05-25T14:50:46.217Z,24.81
2023-05-25T14:53:14.124Z,24.85
2023-05-25T14:55:42.943Z,24.88
2023-05-25T14:58:11.711Z,24.92
2023-05-25T15:00:40.078Z,24.94
2023-05-25T15:03:08.263Z,24.97
2023-05-25T15:05:37.558Z,24.99
2023-05-25T15:08:05.762Z,25.02
2023-05-25T15:10:34.860Z,25.04
2023-05-25T15:13:04.449Z,25.07
2023-05-25T15:15:33.666Z,25.09
2023-05-25T15:18:02.428Z,25.12
2023-05-25T15:20:31.130Z,25.15
2023-05-25T15:23:00.660Z,25.17
2023-05-25T15:25:34.894Z,25.19
2023-05-25T15:28:04.295Z,25.20
2023-05-25T15:30:35.000Z,25.22
2023-05-25T15:33:03.217Z,25.23
2023-05-25T15:35:32.642Z,25.24
2023-05-25T15:38:02.235Z,25.26
2023-05-25T15:40:31.025Z,25.29
2023-05-25T15:42:59.571Z,25.32
2023-05-25T15:45:28.337Z,25.35
2023-05-25T15:47:56.574Z,25.36
2023-05-25T15:50:25.802Z,25.37
2023-05-25T15:52:54.302Z,25.38
2023-05-25T15:55:23.388Z,25.38
2023-05-25T15:57:51.328Z,25.38
2023-05-25T16:00:19.324Z,25.38
2023-05-25T16:02:47.425Z,25.36
2023-05-25T16:05:15.795Z,25.35
2023-05-25T16:07:44.484Z,25.32
2023-05-25T16:10:12.530Z,25.29
2023-05-25T16:12:41.158Z,25.25
2023-05-25T16:15:10.975Z,25.21
2023-05-25T16:17:38.946Z,25.17
2023-05-25T16:20:07.486Z,25.13
2023-05-25T16:22:36.122Z,25.07
2023-05-25T16:25:04.210Z,25.02
2023-05-25T16:27:32.240Z,24.97
2023-05-25T16:30:01.271Z,24.92
2023-05-25T16:32:29.697Z,24.87
2023-05-25T16:34:58.823Z,24.82
2023-05-25T16:37:27.798Z,24.76
2023-05-25T16:39:55.993Z,24.71
2023-05-25T16:42:25.216Z,24.66
2023-05-25T16:44:53.283Z,24.61
2023-05-25T16:47:22.299Z,24.56
2023-05-25T16:49:50.551Z,24.51
2023-05-25T16:52:18.665Z,24.45
2023-05-25T16:54:46.764Z,24.40
2023-05-25T16:57:15.617Z,24.35
2023-05-25T16:59:43.789Z,24.29
2023-05-25T17:02:11.814Z,24.22
2023-05-25T17:04:39.936Z,24.14
2023-05-25T17:07:09.028Z,24.07
2023-05-25T17:09:38.948Z,24.02
2023-05-25T17:12:07.863Z,23.96
2023-05-25T17:14:35.979Z,23.90
2023-05-25T17:17:06.215Z,23.85
2023-05-25T17:19:34.946Z,23.79
2023-05-25T17:22:03.843Z,23.75
2023-05-25T17:24:31.899Z,23.69
2023-05-25T17:27:03.035Z,23.62
2023-05-25T17:29:32.252Z,23.55
2023-05-25T17:32:00.575Z,23.51
2023-05-25T17:34:29.388Z,23.46
2023-05-25T17:36:57.323Z,23.41
2023-05-25T17:39:25.294Z,23.37
2023-05-25T17:41:54.664Z,23.28
2023-05-25T17:44:23.307Z,23.16
2023-05-25T17:46:51.142Z,23.07
2023-05-25T17:49:20.076Z,23.02
2023-05-25T17:51:49.817Z,22.98
2023-05-25T17:54:20.305Z,22.94
2023-05-25T17:56:49.622Z,22.89
2023-05-25T17:59:18.380Z,22.84
2023-05-25T18:01:47.116Z,22.79
2023-05-25T18:04:16.337Z,22.75
2023-05-25T18:06:44.588Z,22.71
2023-05-25T18:09:12.558Z,22.68
2023-05-25T18:11:41.288Z,22.63
2023-05-25T18:14:09.419Z,22.58
2023-05-25T18:16:39.877Z,22.52
2023-05-25T18:19:09.673Z,22.46
2023-05-25T18:21:39.614Z,22.41
2023-05-25T18:24:09.060Z,22.36
2023-05-25T18:26:37.389Z,22.30
2023-05-25T18:29:05.511Z,22.26
2023-05-25T18:31:33.491Z,22.21
2023-05-25T18:34:02.885Z,22.16
2023-05-25T18:36:31.485Z,22.10
2023-05-25T18:38:59.519Z,22.04
2023-05-25T18:41:28.740Z,21.99
2023-05-25T18:43:56.642Z,21.93
2023-05-25T18:46:26.332Z,21.86
2023-05-25T18:48:56.436Z,21.80
2023-05-25T18:51:26.001Z,21.75
2023-05-25T18:53:55.126Z,21.70
2023-05-25T18:56:23.101Z,21.65
2023-05-25T18:58:54.948Z,21.60
2023-05-25T19:01:26.151Z,21.54
2023-05-25T19:03:57.506Z,21.48
2023-05-25T19:06:27.803Z,21.43
2023-05-25T19:08:55.822Z,21.38
2023-05-25T19:11:23.868Z,21.33
2023-05-25T19:13:52.971Z,21.28
2023-05-25T19:16:22.368Z,21.22
2023-05-25T19:18:50.464Z,21.18
2023-05-25T19:21:18.746Z,21.13
2023-05-25T19:23:46.812Z,21.09
2023-05-25T19:26:14.866Z,21.04
2023-05-25T19:28:43.354Z,20.99
2023-05-25T19:31:11.607Z,20.94
2023-05-25T19:33:40.535Z,20.88
2023-05-25T19:36:08.904Z,20.83
2023-05-25T19:38:41.340Z,20.78
2023-05-25T19:41:11.001Z,20.72
2023-05-25T19:43:39.230Z,20.68
2023-05-25T19:46:08.271Z,20.64
2023-05-25T19:48:36.703Z,20.60
2023-05-25T19:51:04.882Z,20.55
2023-05-25T19:53:32.916Z,20.51
2023-05-25T19:56:03.348Z,20.47
2023-05-25T19:58:31.652Z,20.41
2023-05-25T20:00:59.565Z,20.35
2023-05-25T20:03:27.697Z,20.29
2023-05-25T20:05:58.064Z,20.24
2023-05-25T20:08:27.385Z,20.19
2023-05-25T20:10:55.925Z,20.14
2023-05-25T20:13:24.107Z,20.10
2023-05-25T20:15:52.861Z,20.05
2023-05-25T20:18:24.117Z,19.99
2023-05-25T20:20:53.414Z,19.93
2023-05-25T20:23:21.590Z,19.86
2023-05-25T20:25:50.330Z,19.81
2023-05-25T20:28:19.685Z,19.77
2023-05-25T20:30:49.014Z,19.73
2023-05-25T20:33:17.332Z,19.69
2023-05-25T20:35:45.814Z,19.65
2023-05-25T20:38:13.944Z,19.59
2023-05-25T20:40:41.921Z,19.54
2023-05-25T20:43:09.893Z,19.48
2023-05-25T20:45:39.488Z,19.43
2023-05-25T20:48:08.089Z,19.38
2023-05-25T20:50:36.463Z,19.34
2023-05-25T20:53:05.026Z,19.31
2023-05-25T20:55:33.923Z,19.26
2023-05-25T20:58:02.000Z,19.21
2023-05-25T21:00:31.290Z,19.17
2023-05-25T21:03:01.482Z,19.13
2023-05-25T21:05:29.876Z,19.09
2023-05-25T21:07:58.015Z,19.06
2023-05-25T21:10:28.906Z,19.01
2023-05-25T21:12:57.495Z,18.97
2023-05-25T21:15:27.320Z,18.91
2023-05-25T21:17:57.902Z,18.87
2023-05-25T21:20:28.242Z,18.83
2023-05-25T21:22:56.964Z,18.78
2023-05-25T21:25:25.420Z,18.75
2023-05-25T21:27:56.718Z,18.72
2023-05-25T21:30:25.823Z,18.68
2023-05-25T21:32:53.976Z,18.65
2023-05-25T21:35:23.845Z,18.62
2023-05-25T21:37:51.863Z,18.59
2023-05-25T21:40:22.045Z,18.57
2023-05-25T21:42:53.780Z,18.54
2023-05-25T21:45:21.818Z,18.52
2023-05-25T21:47:49.808Z,18.50
2023-05-25T21:50:17.947Z,18.49
2023-05-25T21:52:46.375Z,18.47
2023-05-25T21:55:14.583Z,18.44
2023-05-25T21:57:43.200Z,18.42
2023-05-25T22:00:12.916Z,18.39
2023-05-25T22:02:42.725Z,18.37
2023-05-25T22:05:10.747Z,18.34
2023-05-25T22:07:39.076Z,18.32
2023-05-25T22:10:07.778Z,18.29
2023-05-25T22:12:36.384Z,18.23
2023-05-25T22:15:06.056Z,18.19
2023-05-25T22:17:34.836Z,18.14
2023-05-25T22:20:08.066Z,18.08
2023-05-25T22:22:37.575Z,18.04
2023-05-25T22:25:06.260Z,18.00
2023-05-25T22:27:35.424Z,17.98
2023-05-25T22:30:03.804Z,17.96
2023-05-25T22:32:31.895Z,17.95
2023-05-25T22:34:59.887Z,17.96
2023-05-25T22:37:29.155Z,17.94
2023-05-25T22:39:58.525Z,17.94
2023-05-25T22:42:26.396Z,17.96
2023-05-25T22:44:55.842Z,17.97
2023-05-25T22:47:24.699Z,18.00
2023-05-25T22:49:53.406Z,18.03
2023-05-25T22:52:21.950Z,18.05
2023-05-25T22:54:49.978Z,18.06
2023-05-25T22:57:19.724Z,18.08
2023-05-25T22:59:48.523Z,18.09
2023-05-25T23:02:17.184Z,18.07
2023-05-25T23:04:45.854Z,18.03
2023-05-25T23:07:14.905Z,17.97
2023-05-25T23:09:43.178Z,17.91
2023-05-25T23:12:11.323Z,17.88
2023-05-25T23:14:39.320Z,17.84
2023-05-25T23:17:08.115Z,17.81
2023-05-25T23:19:44.934Z,17.77
2023-05-25T23:22:13.076Z,17.75
2023-05-25T23:24:41.622Z,17.73
2023-05-25T23:27:09.726Z,17.70
2023-05-25T23:29:41.522Z,17.68
2023-05-25T23:32:09.519Z,17.66
2023-05-25T23:34:38.453Z,17.65
2023-05-25T23:37:07.445Z,17.63
2023-05-25T23:39:35.499Z,17.61
2023-05-25T23:42:03.617Z,17.58
2023-05-25T23:44:32.077Z,17.57
2023-05-25T23:47:02.471Z,17.56
2023-05-25T23:49:31.324Z,17.54
2023-05-25T23:52:00.088Z,17.52
2023-05-25T23:54:29.239Z,17.50
2023-05-25T23:56:57.507Z,17.49
2023-05-25T23:59:26.192Z,17.48
